Time;durP1;ratioP1;P1;durP2;ratioP2;P2;SDS_P1;SDS_P2;PMS_P1;PMS_P2;Temp;Humidity;BMP_temperature;BMP_pressure;BME280_temperature;BME280_humidity;BME280_pressure;Samples;Min_cycle;Max_cycle;Signal;HPM_P1;HPM_P2
2021/05/09 00:00:16;;;;;;;3.53;1.60;;;;;;;;;;10473478;28;20200;-71
2021/05/09 00:05:17;;;;;;;3.00;1.57;;;;;;;;;;10478249;28;20307;-72
2021/05/09 00:10:20;;;;;;;2.10;1.40;;;;;;;;;;10488490;28;20262;-72
2021/05/09 00:15:23;;;;;;;2.67;1.20;;;;;;;;;;10477576;28;20311;-72
2021/05/09 00:20:24;;;;;;;3.13;1.50;;;;;;;;;;10486335;28;20334;-71
2021/05/09 00:25:27;;;;;;;2.93;1.60;;;;;;;;;;10485006;28;20357;-71
2021/05/09 00:30:28;;;;;;;3.07;1.60;;;;;;;;;;10470014;28;20212;-72
2021/05/09 00:35:30;;;;;;;3.17;1.60;;;;;;;;;;10485046;28;20678;-71
2021/05/09 00:40:32;;;;;;;3.40;1.53;;;;;;;;;;10489652;28;20664;-71
2021/05/09 00:45:34;;;;;;;3.97;1.87;;;;;;;;;;10484829;28;20219;-70
2021/05/09 00:50:35;;;;;;;5.10;2.00;;;;;;;;;;10493700;28;20283;-72
2021/05/09 00:55:38;;;;;;;2.83;1.40;;;;;;;;;;10495326;28;20235;-72
2021/05/09 01:00:40;;;;;;;3.37;1.90;;;;;;;;;;10494449;28;20201;-72
2021/05/09 01:05:42;;;;;;;4.03;1.60;;;;;;;;;;10466561;28;20537;-71
2021/05/09 01:10:44;;;;;;;4.00;1.60;;;;;;;;;;10493047;28;20399;-71
2021/05/09 01:15:46;;;;;;;3.07;1.60;;;;;;;;;;10484777;28;20216;-72
2021/05/09 01:20:49;;;;;;;2.23;1.40;;;;;;;;;;10483996;28;20189;-72
2021/05/09 01:25:50;;;;;;;3.67;1.40;;;;;;;;;;10515552;28;20208;-70
2021/05/09 01:30:52;;;;;;;2.10;1.30;;;;;;;;;;10489429;28;20192;-72
2021/05/09 01:35:55;;;;;;;2.67;1.53;;;;;;;;;;10478642;28;20215;-72
2021/05/09 01:40:56;;;;;;;3.53;1.40;;;;;;;;;;10486024;28;20196;-71
2021/05/09 01:45:58;;;;;;;4.50;1.40;;;;;;;;;;10487783;28;20204;-71
2021/05/09 01:51:01;;;;;;;1.57;1.23;;;;;;;;;;10487289;28;20192;-72
2021/05/09 01:56:02;;;;;;;1.73;1.20;;;;;;;;;;10479434;28;20196;-72
2021/05/09 02:01:04;;;;;;;1.80;1.20;;;;;;;;;;10484513;28;20620;-72
2021/05/09 02:06:07;;;;;;;4.00;1.40;;;;;;;;;;10477144;28;20303;-72
2021/05/09 02:11:08;;;;;;;1.47;1.10;;;;;;;;;;10487341;28;20193;-72
2021/05/09 02:16:10;;;;;;;2.53;1.30;;;;;;;;;;10484170;28;20219;-72
2021/05/09 02:21:12;;;;;;;2.57;1.20;;;;;;;;;;10488564;28;20572;-72
2021/05/09 02:26:14;;;;;;;1.67;1.00;;;;;;;;;;10479622;28;20313;-72
2021/05/09 02:31:15;;;;;;;1.70;0.93;;;;;;;;;;10488434;28;20349;-72
2021/05/09 02:36:18;;;;;;;2.23;1.00;;;;;;;;;;10482905;28;20295;-72
2021/05/09 02:41:20;;;;;;;2.43;1.20;;;;;;;;;;10492294;28;20271;-72
2021/05/09 02:46:21;;;;;;;2.00;1.23;;;;;;;;;;10485334;28;20212;-71
2021/05/09 02:51:24;;;;;;;2.50;1.30;;;;;;;;;;10478305;28;20196;-72
2021/05/09 02:56:25;;;;;;;2.23;1.00;;;;;;;;;;10483065;28;20270;-72
2021/05/09 03:01:27;;;;;;;2.50;1.27;;;;;;;;;;10490130;28;20241;-70
2021/05/09 03:06:30;;;;;;;3.33;1.30;;;;;;;;;;10498583;28;20589;-71
2021/05/09 03:11:31;;;;;;;1.10;0.80;;;;;;;;;;10490546;28;20678;-72
2021/05/09 03:16:33;;;;;;;0.93;0.80;;;;;;;;;;10488475;28;20223;-72
2021/05/09 03:21:35;;;;;;;2.23;1.07;;;;;;;;;;10496998;28;20204;-72
2021/05/09 03:26:37;;;;;;;2.93;1.17;;;;;;;;;;10491115;28;20288;-72
2021/05/09 03:31:39;;;;;;;2.17;1.00;;;;;;;;;;10496379;28;20211;-71
2021/05/09 03:36:41;;;;;;;2.77;1.10;;;;;;;;;;10487517;28;20549;-71
2021/05/09 03:41:43;;;;;;;2.07;1.00;;;;;;;;;;10486429;28;20192;-72
2021/05/09 03:46:45;;;;;;;3.50;1.30;;;;;;;;;;10496461;28;20208;-71
2021/05/09 03:51:47;;;;;;;1.60;0.80;;;;;;;;;;10489363;28;20694;-70
2021/05/09 03:56:49;;;;;;;1.90;1.00;;;;;;;;;;10488900;28;20600;-70
2021/05/09 04:01:51;;;;;;;2.00;0.90;;;;;;;;;;10489412;28;20277;-71
2021/05/09 04:06:53;;;;;;;2.27;0.90;;;;;;;;;;10482155;28;20257;-72
2021/05/09 04:11:55;;;;;;;2.83;1.20;;;;;;;;;;10496224;28;20628;-71
2021/05/09 04:16:56;;;;;;;3.03;1.07;;;;;;;;;;10494064;28;20677;-72
2021/05/09 04:21:59;;;;;;;1.97;1.00;;;;;;;;;;10488937;28;20667;-72
2021/05/09 04:27:01;;;;;;;2.10;1.00;;;;;;;;;;10489856;28;20510;-71
2021/05/09 04:32:02;;;;;;;3.17;1.10;;;;;;;;;;10484816;28;20283;-71
2021/05/09 04:37:05;;;;;;;2.50;1.17;;;;;;;;;;10488300;28;20212;-70
2021/05/09 04:42:06;;;;;;;1.30;1.00;;;;;;;;;;10492212;28;20227;-70
2021/05/09 04:47:08;;;;;;;1.67;0.90;;;;;;;;;;10484330;28;20672;-71
2021/05/09 04:52:10;;;;;;;2.13;1.00;;;;;;;;;;10484651;28;20196;-70
2021/05/09 04:57:12;;;;;;;2.97;1.00;;;;;;;;;;10490915;28;20449;-72
2021/05/09 05:02:13;;;;;;;0.97;0.77;;;;;;;;;;10486359;28;20196;-72
2021/05/09 05:07:18;;;;;;;1.30;0.90;;;;;;;;;;10480405;28;20224;-70
2021/05/09 05:12:20;;;;;;;0.70;0.63;;;;;;;;;;10494520;28;20547;-71
2021/05/09 05:17:22;;;;;;;1.37;0.90;;;;;;;;;;10489093;28;20215;-71
2021/05/09 05:22:25;;;;;;;1.93;0.70;;;;;;;;;;10487591;28;20275;-71
2021/05/09 05:27:27;;;;;;;2.53;0.80;;;;;;;;;;10485181;28;20220;-71
2021/05/09 05:32:28;;;;;;;1.43;0.80;;;;;;;;;;10488702;28;20216;-72
2021/05/09 05:37:32;;;;;;;1.50;0.87;;;;;;;;;;10478239;28;20782;-72
2021/05/09 05:42:34;;;;;;;2.53;0.90;;;;;;;;;;10460152;28;20220;-71
2021/05/09 05:47:35;;;;;;;2.37;0.80;;;;;;;;;;10483680;28;20291;-71
2021/05/09 05:52:38;;;;;;;1.20;0.70;;;;;;;;;;10476058;28;20305;-71
2021/05/09 05:57:39;;;;;;;0.60;0.40;;;;;;;;;;10471069;28;20192;-71
2021/05/09 06:02:41;;;;;;;1.47;0.90;;;;;;;;;;10469837;28;20333;-70
2021/05/09 06:07:43;;;;;;;2.20;0.87;;;;;;;;;;10466502;28;20207;-70
2021/05/09 06:12:45;;;;;;;2.23;0.83;;;;;;;;;;10475323;28;20292;-70
2021/05/09 06:17:46;;;;;;;0.80;0.60;;;;;;;;;;10481739;28;20200;-71
2021/05/09 06:22:49;;;;;;;1.47;0.60;;;;;;;;;;10475982;28;20348;-70
2021/05/09 06:27:51;;;;;;;1.30;0.80;;;;;;;;;;10470890;28;20292;-71
2021/05/09 06:32:53;;;;;;;2.37;0.97;;;;;;;;;;10489400;28;20765;-71
2021/05/09 06:37:55;;;;;;;1.27;0.77;;;;;;;;;;10485972;28;20192;-70
2021/05/09 06:42:57;;;;;;;2.03;0.90;;;;;;;;;;10499698;28;20258;-69
2021/05/09 06:48:01;;;;;;;1.50;0.90;;;;;;;;;;10490802;28;20204;-71
2021/05/09 06:53:04;;;;;;;1.37;0.77;;;;;;;;;;10491713;28;20219;-72
2021/05/09 06:58:09;;;;;;;0.67;0.60;;;;;;;;;;10490243;28;20211;-70
2021/05/09 07:03:10;;;;;;;1.53;1.03;;;;;;;;;;10488891;28;20212;-70
2021/05/09 07:08:16;;;;;;;1.17;0.73;;;;;;;;;;10481808;28;20784;-70
2021/05/09 07:13:18;;;;;;;1.80;0.63;;;;;;;;;;10490615;28;20220;-71
2021/05/09 07:18:21;;;;;;;0.90;0.70;;;;;;;;;;10486977;28;20664;-70
2021/05/09 07:23:24;;;;;;;3.87;1.10;;;;;;;;;;10489539;28;20227;-71
2021/05/09 07:28:25;;;;;;;1.53;0.80;;;;;;;;;;10492032;28;20204;-71
2021/05/09 07:33:27;;;;;;;2.93;1.23;;;;;;;;;;10481814;28;20240;-71
2021/05/09 07:38:29;;;;;;;1.47;0.90;;;;;;;;;;10479957;28;20227;-71
2021/05/09 07:43:32;;;;;;;1.30;1.00;;;;;;;;;;10472201;28;20216;-70
2021/05/09 07:48:33;;;;;;;2.28;1.05;;;;;;;;;;10499367;28;20278;-70
2021/05/09 07:53:36;;;;;;;2.13;1.10;;;;;;;;;;10477173;28;20219;-72
2021/05/09 07:58:37;;;;;;;2.55;1.20;;;;;;;;;;10468705;28;20212;-72
2021/05/09 08:03:39;;;;;;;1.13;0.95;;;;;;;;;;10469078;28;20220;-72
2021/05/09 08:08:42;;;;;;;1.20;1.10;;;;;;;;;;10474237;28;20280;-72
2021/05/09 08:13:43;;;;;;;1.50;1.10;;;;;;;;;;10466816;28;20403;-70
2021/05/09 08:18:45;;;;;;;1.58;1.27;;;;;;;;;;10473396;28;20270;-71
2021/05/09 08:23:47;;;;;;;1.30;1.20;;;;;;;;;;10466123;28;20248;-70
2021/05/09 08:28:49;;;;;;;2.17;1.30;;;;;;;;;;10468222;28;20280;-70
2021/05/09 08:33:53;;;;;;;2.75;1.10;;;;;;;;;;10472347;28;20980;-70
2021/05/09 08:38:55;;;;;;;1.70;1.35;;;;;;;;;;10463283;28;20250;-71
2021/05/09 08:43:57;;;;;;;1.50;1.20;;;;;;;;;;10488965;28;20315;-71
2021/05/09 08:48:59;;;;;;;1.40;1.30;;;;;;;;;;10485836;28;20193;-70
2021/05/09 08:54:01;;;;;;;1.60;1.40;;;;;;;;;;10477487;28;20343;-72
2021/05/09 08:59:03;;;;;;;2.40;1.40;;;;;;;;;;10473607;28;20195;-71
2021/05/09 09:04:04;;;;;;;1.60;1.40;;;;;;;;;;10483615;28;20685;-71
2021/05/09 09:09:17;;;;;;;1.70;1.60;;;;;;;;;;10478050;28;20694;-71
2021/05/09 09:14:24;;;;;;;1.80;1.50;;;;;;;;;;10484869;28;20311;-69
2021/05/09 09:19:26;;;;;;;2.97;1.50;;;;;;;;;;10479872;28;20635;-70
2021/05/09 09:24:29;;;;;;;1.58;1.40;;;;;;;;;;10490094;28;20267;-71
2021/05/09 09:29:33;;;;;;;1.75;1.60;;;;;;;;;;10461570;28;20291;-71
2021/05/09 09:34:37;;;;;;;1.50;1.40;;;;;;;;;;10466701;28;20243;-72
2021/05/09 09:39:46;;;;;;;1.58;1.48;;;;;;;;;;10473452;28;20198;-71
2021/05/09 09:44:48;;;;;;;3.50;1.42;;;;;;;;;;10473723;28;20230;-70
2021/05/09 09:49:49;;;;;;;2.03;1.50;;;;;;;;;;10483905;28;20223;-72
2021/05/09 09:54:52;;;;;;;2.58;1.65;;;;;;;;;;10489716;28;20208;-71
2021/05/09 10:00:05;;;;;;;1.92;1.40;;;;;;;;;;10487202;28;20198;-72
2021/05/09 10:05:07;;;;;;;2.40;1.90;;;;;;;;;;10486490;28;20207;-72
2021/05/09 10:10:11;;;;;;;3.60;1.50;;;;;;;;;;10500143;28;20206;-71
2021/05/09 10:15:12;;;;;;;2.10;1.75;;;;;;;;;;10497567;28;20482;-69
2021/05/09 10:20:14;;;;;;;2.40;1.67;;;;;;;;;;10493045;28;20204;-69
2021/05/09 10:25:36;;;;;;;1.83;1.70;;;;;;;;;;10476383;28;20215;-71
2021/05/09 10:30:46;;;;;;;1.92;1.60;;;;;;;;;;10492657;28;20271;-69
2021/05/09 10:35:53;;;;;;;2.42;1.60;;;;;;;;;;10488185;28;20216;-69
2021/05/09 10:41:09;;;;;;;1.65;1.55;;;;;;;;;;10488140;28;20199;-72
2021/05/09 10:46:12;;;;;;;1.77;1.40;;;;;;;;;;10531497;27;20261;-71
2021/05/09 10:51:28;;;;;;;3.80;1.60;;;;;;;;;;10492089;28;20196;-72
2021/05/09 10:56:33;;;;;;;2.13;1.60;;;;;;;;;;10495048;28;20215;-72
2021/05/09 11:01:36;;;;;;;1.73;1.55;;;;;;;;;;10501829;28;20200;-71
2021/05/09 11:06:40;;;;;;;2.17;1.50;;;;;;;;;;10496720;28;20208;-71
2021/05/09 11:12:09;;;;;;;4.25;2.33;;;;;;;;;;10486957;28;20281;-70
2021/05/09 11:17:14;;;;;;;1.65;1.30;;;;;;;;;;10465333;28;20256;-69
2021/05/09 11:22:19;;;;;;;3.45;1.80;;;;;;;;;;10482851;28;20203;-69
2021/05/09 11:27:23;;;;;;;2.83;1.40;;;;;;;;;;10490457;28;20660;-71
2021/05/09 11:32:26;;;;;;;1.40;1.30;;;;;;;;;;10483961;28;21018;-69
2021/05/09 11:37:35;;;;;;;1.92;1.42;;;;;;;;;;10495902;28;20208;-70
2021/05/09 11:42:38;;;;;;;2.13;1.38;;;;;;;;;;10476385;28;20726;-70
2021/05/09 11:47:41;;;;;;;3.70;1.30;;;;;;;;;;10486919;28;20713;-70
2021/05/09 11:52:44;;;;;;;2.53;1.52;;;;;;;;;;10493812;28;20309;-69
2021/05/09 11:57:46;;;;;;;1.85;1.40;;;;;;;;;;10491501;28;20227;-70
2021/05/09 12:02:49;;;;;;;1.58;1.30;;;;;;;;;;10489975;28;20307;-71
2021/05/09 12:07:51;;;;;;;1.60;1.50;;;;;;;;;;10496392;28;20195;-70
2021/05/09 12:12:56;;;;;;;3.10;1.27;;;;;;;;;;10490897;28;20216;-70
2021/05/09 12:17:59;;;;;;;4.00;1.40;;;;;;;;;;10501880;28;20530;-69
2021/05/09 12:23:03;;;;;;;1.30;1.20;;;;;;;;;;10476986;28;20298;-71
2021/05/09 12:28:06;;;;;;;1.30;1.20;;;;;;;;;;10488419;28;20200;-71
2021/05/09 12:33:08;;;;;;;4.05;1.30;;;;;;;;;;10489092;28;20247;-70
2021/05/09 12:38:10;;;;;;;1.38;1.20;;;;;;;;;;10475155;28;20540;-71
2021/05/09 12:43:12;;;;;;;1.23;1.20;;;;;;;;;;10485205;28;20343;-71
2021/05/09 12:48:16;;;;;;;2.63;1.08;;;;;;;;;;10479193;28;20732;-69
2021/05/09 12:53:33;;;;;;;1.20;1.10;;;;;;;;;;10488402;28;20236;-70
2021/05/09 12:58:55;;;;;;;2.00;1.00;;;;;;;;;;10489133;28;20212;-68
2021/05/09 13:03:57;;;;;;;1.08;1.00;;;;;;;;;;10480553;28;20278;-69
2021/05/09 13:08:59;;;;;;;1.60;1.10;;;;;;;;;;10487688;28;20548;-70
2021/05/09 13:14:01;;;;;;;1.63;1.20;;;;;;;;;;10494940;28;20200;-70
2021/05/09 13:19:04;;;;;;;2.30;1.20;;;;;;;;;;10484927;28;20684;-71
2021/05/09 13:24:06;;;;;;;2.17;1.20;;;;;;;;;;10483883;28;20442;-70
2021/05/09 13:29:07;;;;;;;1.98;1.02;;;;;;;;;;10483309;28;20223;-70
2021/05/09 13:34:10;;;;;;;1.73;1.10;;;;;;;;;;10489677;28;20215;-70
2021/05/09 13:39:12;;;;;;;1.70;1.20;;;;;;;;;;10480013;28;20354;-71
2021/05/09 13:44:14;;;;;;;2.53;1.30;;;;;;;;;;10486480;28;20208;-70
2021/05/09 13:49:16;;;;;;;2.58;1.10;;;;;;;;;;10492096;28;20627;-70
2021/05/09 13:54:18;;;;;;;1.98;1.27;;;;;;;;;;10478135;28;20242;-71
2021/05/09 13:59:19;;;;;;;3.58;1.35;;;;;;;;;;10479741;28;20235;-70
2021/05/09 14:04:22;;;;;;;1.60;1.10;;;;;;;;;;10478402;28;20215;-69
2021/05/09 14:09:23;;;;;;;1.38;1.20;;;;;;;;;;10479500;28;20234;-70
2021/05/09 14:14:26;;;;;;;2.17;1.13;;;;;;;;;;10476989;28;20224;-70
2021/05/09 14:19:28;;;;;;;1.73;1.33;;;;;;;;;;10480344;28;20216;-69
2021/05/09 14:24:30;;;;;;;4.05;1.20;;;;;;;;;;10475639;28;20303;-71
2021/05/09 14:29:31;;;;;;;1.85;1.48;;;;;;;;;;10484897;28;20256;-69
2021/05/09 14:34:33;;;;;;;2.80;1.30;;;;;;;;;;10481576;28;20653;-71
2021/05/09 14:39:35;;;;;;;2.05;1.30;;;;;;;;;;10476478;28;20224;-70
2021/05/09 14:44:37;;;;;;;2.92;1.50;;;;;;;;;;10478656;28;20734;-71
2021/05/09 14:49:42;;;;;;;3.47;1.48;;;;;;;;;;10489322;28;20196;-70
2021/05/09 14:54:44;;;;;;;2.15;1.35;;;;;;;;;;10493647;28;20263;-71
2021/05/09 14:59:45;;;;;;;1.65;1.40;;;;;;;;;;10493375;28;20188;-71
2021/05/09 15:04:48;;;;;;;3.78;1.50;;;;;;;;;;10487553;28;20220;-71
2021/05/09 15:09:49;;;;;;;2.75;1.40;;;;;;;;;;10487954;28;20214;-71
2021/05/09 15:14:51;;;;;;;1.85;1.50;;;;;;;;;;10499272;28;20212;-71
2021/05/09 15:19:58;;;;;;;1.85;1.42;;;;;;;;;;10495771;28;20713;-72
2021/05/09 15:25:00;;;;;;;2.58;1.25;;;;;;;;;;10493059;28;21267;-72
2021/05/09 15:30:01;;;;;;;2.40;1.33;;;;;;;;;;10491657;28;20192;-72
2021/05/09 15:35:06;;;;;;;2.78;1.40;;;;;;;;;;10489362;28;20586;-72
2021/05/09 15:40:08;;;;;;;2.60;1.52;;;;;;;;;;10498903;28;20219;-72
2021/05/09 15:45:11;;;;;;;2.03;1.30;;;;;;;;;;10492260;28;20759;-72
2021/05/09 15:50:13;;;;;;;4.03;1.42;;;;;;;;;;10480649;28;20196;-72
2021/05/09 15:55:15;;;;;;;2.70;1.30;;;;;;;;;;10485930;28;20240;-72
2021/05/09 16:00:17;;;;;;;2.65;1.33;;;;;;;;;;10491459;28;20211;-72
2021/05/09 16:05:20;;;;;;;2.75;1.60;;;;;;;;;;10489052;28;20645;-73
2021/05/09 16:10:21;;;;;;;3.30;1.40;;;;;;;;;;10492835;28;20201;-71
2021/05/09 16:15:26;;;;;;;3.92;1.60;;;;;;;;;;10496403;28;20583;-71
2021/05/09 16:20:29;;;;;;;1.77;1.30;;;;;;;;;;10488776;28;20309;-71
2021/05/09 16:25:30;;;;;;;3.83;1.30;;;;;;;;;;10492896;28;20318;-71
2021/05/09 16:30:32;;;;;;;3.42;1.75;;;;;;;;;;10487019;28;20217;-71
2021/05/09 16:35:36;;;;;;;2.67;1.40;;;;;;;;;;10486993;28;20241;-72
2021/05/09 16:40:37;;;;;;;3.03;1.35;;;;;;;;;;10488164;28;20230;-72
2021/05/09 16:45:39;;;;;;;4.40;1.45;;;;;;;;;;10486806;28;20204;-71
2021/05/09 16:50:41;;;;;;;3.03;1.55;;;;;;;;;;10471197;28;20294;-72
2021/05/09 16:55:43;;;;;;;2.20;1.40;;;;;;;;;;10483528;28;20220;-72
2021/05/09 17:00:45;;;;;;;2.40;1.60;;;;;;;;;;10480032;28;20279;-72
2021/05/09 17:05:47;;;;;;;3.40;1.80;;;;;;;;;;10486593;28;20227;-72
2021/05/09 17:10:49;;;;;;;3.88;1.70;;;;;;;;;;10487374;28;20252;-72
2021/05/09 17:15:50;;;;;;;2.95;1.35;;;;;;;;;;10479675;28;20216;-72
2021/05/09 17:20:53;;;;;;;3.55;1.60;;;;;;;;;;10484697;28;21771;-72
2021/05/09 17:25:56;;;;;;;2.75;1.58;;;;;;;;;;10472392;28;20196;-71
2021/05/09 17:30:58;;;;;;;5.13;1.90;;;;;;;;;;10466911;28;20611;-71
2021/05/09 17:36:00;;;;;;;4.40;1.77;;;;;;;;;;10480623;28;20204;-70
2021/05/09 17:41:02;;;;;;;7.10;1.60;;;;;;;;;;10472935;28;20640;-70
2021/05/09 17:46:04;;;;;;;3.38;1.60;;;;;;;;;;10481501;28;20580;-69
2021/05/09 17:51:06;;;;;;;5.82;1.92;;;;;;;;;;10486555;28;20196;-71
2021/05/09 17:56:08;;;;;;;4.75;1.67;;;;;;;;;;10487331;28;20258;-70
2021/05/09 18:01:09;;;;;;;5.47;2.00;;;;;;;;;;10468769;28;20590;-71
2021/05/09 18:06:12;;;;;;;3.40;1.45;;;;;;;;;;10471368;28;20216;-70
2021/05/09 18:11:14;;;;;;;3.58;1.90;;;;;;;;;;10496111;28;20201;-70
2021/05/09 18:16:27;;;;;;;4.20;1.90;;;;;;;;;;10493878;28;20265;-70
2021/05/09 18:26:49;;;;;;;4.17;1.57;;;;;;;;;;10495503;28;20597;-72
2021/05/09 18:31:51;;;;;;;3.70;1.70;;;;;;;;;;10484851;28;20204;-70
2021/05/09 18:36:54;;;;;;;4.27;1.50;;;;;;;;;;10483916;28;20286;-69
2021/05/09 18:41:55;;;;;;;4.57;1.90;;;;;;;;;;10480027;28;20231;-70
2021/05/09 18:46:57;;;;;;;5.27;2.20;;;;;;;;;;10483060;28;20577;-71
2021/05/09 18:51:59;;;;;;;5.00;2.03;;;;;;;;;;10488960;28;20202;-71
2021/05/09 18:57:01;;;;;;;3.23;1.80;;;;;;;;;;10472363;28;20689;-70
2021/05/09 19:02:03;;;;;;;4.50;1.83;;;;;;;;;;10495083;27;20268;-73
2021/05/09 19:07:08;;;;;;;3.37;1.80;;;;;;;;;;10471374;28;20232;-72
2021/05/09 19:12:10;;;;;;;4.83;2.30;;;;;;;;;;10458009;28;20201;-71
2021/05/09 19:17:11;;;;;;;6.60;2.10;;;;;;;;;;10484704;28;20809;-71
2021/05/09 19:22:15;;;;;;;4.50;2.10;;;;;;;;;;10460018;28;20668;-72
2021/05/09 19:27:17;;;;;;;5.47;2.20;;;;;;;;;;10455799;28;20226;-72
2021/05/09 19:32:19;;;;;;;10.03;6.13;;;;;;;;;;10467789;28;20637;-72
2021/05/09 19:37:21;;;;;;;6.00;2.33;;;;;;;;;;10484605;28;20200;-72
2021/05/09 19:42:23;;;;;;;5.10;2.20;;;;;;;;;;10470257;28;20212;-74
2021/05/09 19:47:37;;;;;;;7.43;2.50;;;;;;;;;;10477868;28;20193;-72
2021/05/09 19:52:40;;;;;;;6.27;2.80;;;;;;;;;;10468334;28;20212;-73
2021/05/09 19:57:42;;;;;;;6.07;2.50;;;;;;;;;;10476849;28;20563;-72
2021/05/09 20:02:45;;;;;;;5.77;2.80;;;;;;;;;;10476989;28;20212;-72
2021/05/09 20:07:48;;;;;;;6.60;3.23;;;;;;;;;;10465286;28;20184;-72
2021/05/09 20:12:49;;;;;;;7.03;2.65;;;;;;;;;;10475613;28;20436;-72
2021/05/09 20:17:51;;;;;;;4.13;2.23;;;;;;;;;;10483664;28;20520;-73
2021/05/09 20:22:54;;;;;;;4.10;2.10;;;;;;;;;;10482830;28;20212;-72
2021/05/09 20:27:55;;;;;;;4.03;1.77;;;;;;;;;;10482649;28;20250;-72
2021/05/09 20:32:57;;;;;;;3.33;1.53;;;;;;;;;;10494409;28;20273;-73
2021/05/09 20:37:59;;;;;;;1.70;1.27;;;;;;;;;;10484740;28;20247;-73
2021/05/09 20:43:02;;;;;;;2.80;1.40;;;;;;;;;;10485431;28;20853;-73
2021/05/09 20:48:04;;;;;;;3.33;1.53;;;;;;;;;;10481816;28;20361;-72
2021/05/09 20:53:06;;;;;;;3.63;1.53;;;;;;;;;;10478758;28;20230;-73
2021/05/09 20:58:08;;;;;;;3.33;1.40;;;;;;;;;;10486957;28;20268;-71
2021/05/09 21:03:10;;;;;;;3.00;1.10;;;;;;;;;;10485448;28;20244;-72
2021/05/09 21:08:13;;;;;;;2.80;0.90;;;;;;;;;;10482024;28;20632;-72
2021/05/09 21:13:15;;;;;;;2.97;1.10;;;;;;;;;;10481236;28;20315;-71
2021/05/09 21:18:16;;;;;;;1.83;1.10;;;;;;;;;;10488419;28;20736;-71
2021/05/09 21:23:19;;;;;;;5.00;1.30;;;;;;;;;;10485269;28;20224;-70
2021/05/09 21:28:20;;;;;;;2.47;1.40;;;;;;;;;;10486623;28;20776;-71
2021/05/09 21:33:24;;;;;;;2.00;1.20;;;;;;;;;;10492722;28;20311;-72
2021/05/09 21:38:27;;;;;;;2.10;0.97;;;;;;;;;;10478457;28;20575;-72
2021/05/09 21:43:28;;;;;;;1.17;1.00;;;;;;;;;;10484533;28;20204;-71
2021/05/09 21:48:30;;;;;;;3.30;1.20;;;;;;;;;;10478891;28;20253;-72
2021/05/09 21:53:33;;;;;;;1.90;1.10;;;;;;;;;;10479076;28;20267;-71
2021/05/09 21:58:34;;;;;;;2.03;1.20;;;;;;;;;;10480847;28;20584;-71
2021/05/09 22:03:36;;;;;;;3.10;1.30;;;;;;;;;;10483438;28;20513;-73
2021/05/09 22:08:38;;;;;;;2.53;1.23;;;;;;;;;;10483274;28;20341;-72
2021/05/09 22:13:40;;;;;;;2.13;1.30;;;;;;;;;;10488643;28;20238;-71
2021/05/09 22:18:42;;;;;;;2.97;1.30;;;;;;;;;;10506505;28;20228;-72
2021/05/09 22:23:45;;;;;;;2.80;1.23;;;;;;;;;;10481268;28;20213;-70
2021/05/09 22:28:46;;;;;;;3.80;1.50;;;;;;;;;;10485131;28;20272;-71
2021/05/09 22:33:48;;;;;;;2.40;1.37;;;;;;;;;;10478191;28;20236;-72
2021/05/09 22:38:50;;;;;;;2.20;1.23;;;;;;;;;;10476384;28;20254;-70
2021/05/09 22:43:52;;;;;;;2.13;1.17;;;;;;;;;;10484400;28;20212;-71
2021/05/09 22:48:53;;;;;;;2.67;1.27;;;;;;;;;;10483681;28;20184;-72
2021/05/09 22:53:56;;;;;;;2.17;1.30;;;;;;;;;;10487207;28;20290;-72
2021/05/09 22:58:58;;;;;;;2.17;1.20;;;;;;;;;;10480432;28;20204;-72
2021/05/09 23:03:59;;;;;;;4.53;1.40;;;;;;;;;;10481065;28;20216;-72
2021/05/09 23:09:02;;;;;;;2.50;1.33;;;;;;;;;;10487426;28;20184;-72
2021/05/09 23:14:05;;;;;;;1.60;1.10;;;;;;;;;;10495614;28;20208;-72
2021/05/09 23:24:27;;;;;;;2.80;1.13;;;;;;;;;;10489283;28;20797;-73
2021/05/09 23:29:28;;;;;;;2.20;1.20;;;;;;;;;;10491173;28;20871;-72
2021/05/09 23:34:30;;;;;;;2.80;1.30;;;;;;;;;;10477430;28;20239;-73
2021/05/09 23:39:32;;;;;;;2.27;1.20;;;;;;;;;;10492329;28;20216;-73
2021/05/09 23:44:34;;;;;;;0.97;0.83;;;;;;;;;;10484619;28;20220;-72
2021/05/09 23:49:35;;;;;;;2.20;1.20;;;;;;;;;;10484204;28;20718;-73
2021/05/09 23:54:38;;;;;;;2.10;1.20;;;;;;;;;;10493318;28;21000;-73
2021/05/09 23:59:39;;;;;;;2.07;1.20;;;;;;;;;;10486702;28;20300;-73
